Atlantic Island — C4VM2 — position and weather

sailwx.info

Track history (hours):
 
Tides and Currents Weather Stations Pressure Air Temp Water Temp Dewpoint Dewpoint Depression Visibility Wind Speed Wind Dir Waves Ship Positions

Atlantic Island

Last reported at 2018-Feb-21 07:10 UTC. Time now 2018-Feb-25 19:44 UTC.
Position N 37°29' W 009°23'.

Length 95 m; draft 5.2 m.

Type: Cargo ship. MMSI: 210754000.

Date/timePositionNaut miles runAvg speedWind from/ knotsBaromVisibWave heightAir tempDewpointWater temp
2018-Feb-21 07:10N 37°29' W 009°23'210.0
2018-Feb-21 07:00N 37°31' W 009°22'5 9.4
2018-Feb-21 06:30N 37°35' W 009°21'5 9.4
2018-Feb-21 06:00N 37°40' W 009°19'5 9.8
2018-Feb-21 05:30N 37°45' W 009°17'5 9.9
2018-Feb-21 05:00N 37°49' W 009°15'510.4
2018-Feb-21 04:30N 37°54' W 009°13'510.2
2018-Feb-21 04:00N 37°59' W 009°11'5 9.9
2018-Feb-21 03:30N 38°04' W 009°09'5 9.7
2018-Feb-21 03:00N 38°08' W 009°07'5 9.7
2018-Feb-21 02:30N 38°13' W 009°05'510.0
2018-Feb-21 02:00N 38°18' W 009°03'510.1
2018-Feb-21 01:30N 38°22' W 009°01'5 9.9
2018-Feb-21 01:00N 38°27' W 008°58'5 9.3
2018-Feb-21 00:30N 38°30' W 008°54'2 3.2
2018-Feb-20 23:58N 38°31' W 008°52'0 0.0
2018-Feb-20 23:29N 38°31' W 008°52'0 0.0
2018-Feb-20 22:40N 38°31' W 008°52'0 0.0
2018-Feb-20 22:28N 38°31' W 008°52'0 0.0
2018-Feb-20 20:28N 38°31' W 008°52'0 0.0
2018-Feb-20 19:49N 38°31' W 008°52'0 0.0
2018-Feb-20 19:28N 38°31' W 008°52'0 0.0
2018-Feb-20 18:58N 38°31' W 008°52'0 0.0
2018-Feb-20 18:28N 38°31' W 008°52'0 0.0
2018-Feb-20 17:58N 38°31' W 008°52'0 0.0
2018-Feb-20 17:22N 38°31' W 008°52'0 0.0
2018-Feb-20 16:46N 38°31' W 008°52'0 0.0
2018-Feb-20 16:31N 38°31' W 008°52'0 0.0
2018-Feb-20 14:33N 38°31' W 008°52'0 0.0
2018-Feb-20 14:21N 38°31' W 008°52'0 0.0
2018-Feb-20 13:45N 38°31' W 008°52'0 0.0
2018-Feb-20 13:27N 38°31' W 008°52'0 0.0
2018-Feb-20 12:57N 38°31' W 008°52'0 0.0
2018-Feb-20 12:27N 38°31' W 008°52'0 0.0
2018-Feb-20 11:09N 38°31' W 008°52'0 0.0
2018-Feb-20 10:57N 38°31' W 008°52'0 0.0
2018-Feb-20 10:27N 38°31' W 008°52'0 0.0
2018-Feb-20 10:00N 38°31' W 008°52'0 0.0
2018-Feb-20 09:27N 38°31' W 008°52'0 0.0
2018-Feb-20 08:54N 38°31' W 008°52'0 0.0
2018-Feb-20 08:27N 38°31' W 008°52'0 0.0
2018-Feb-20 08:00N 38°31' W 008°52'0 0.0
2018-Feb-20 07:27N 38°31' W 008°52'0 0.0
2018-Feb-20 07:00N 38°31' W 008°52'0 0.0
2018-Feb-20 06:30N 38°31' W 008°52'0 0.0
2018-Feb-20 05:54N 38°31' W 008°52'0 0.0
2018-Feb-20 05:30N 38°31' W 008°52'0 0.0
2018-Feb-20 04:54N 38°31' W 008°52'0 0.0
2018-Feb-20 04:30N 38°31' W 008°52'0 0.0
2018-Feb-20 04:00N 38°31' W 008°52'0 0.0
2018-Feb-20 03:27N 38°31' W 008°52'0 0.0
2018-Feb-20 03:00N 38°31' W 008°52'0 0.0
2018-Feb-20 02:30N 38°31' W 008°52'0 0.0
2018-Feb-20 00:54N 38°31' W 008°52'0 0.0
2018-Feb-20 00:30N 38°31' W 008°52'0 0.0
2018-Feb-20 00:00N 38°31' W 008°52'0 0.0
2018-Feb-19 23:30N 38°31' W 008°52'0 0.0
2018-Feb-19 23:00N 38°31' W 008°52'0 0.0
2018-Feb-19 22:30N 38°31' W 008°52'0 0.0
2018-Feb-19 19:45N 38°31' W 008°52'0 0.0
2018-Feb-19 18:33N 38°31' W 008°52'0 0.0
2018-Feb-19 18:21N 38°31' W 008°52'0 0.0
2018-Feb-19 17:57N 38°31' W 008°52'0 0.0
2018-Feb-19 16:54N 38°31' W 008°52'0 0.0
2018-Feb-19 16:22N 38°31' W 008°52'2 5.8
2018-Feb-19 16:00N 38°30' W 008°55'511.1
2018-Feb-19 15:30N 38°26' W 008°59'510.0
2018-Feb-19 15:00N 38°22' W 009°03'1 1.0
2018-Feb-19 14:30N 38°23' W 009°04'0 0.9
2018-Feb-19 14:00N 38°23' W 009°04'0 0.6
2018-Feb-19 13:30N 38°23' W 009°04'1 1.6
2018-Feb-19 13:00N 38°23' W 009°05'510.4
2018-Feb-19 12:30N 38°21' W 009°11'5 9.9
2018-Feb-19 12:00N 38°22' W 009°17'5 9.8
2018-Feb-19 11:30N 38°24' W 009°23'510.0
2018-Feb-19 11:00N 38°25' W 009°29'510.0
2018-Feb-19 10:30N 38°27' W 009°35'510.2
2018-Feb-19 10:00N 38°29' W 009°41'510.3
2018-Feb-19 09:30N 38°30' W 009°48'5 9.7
2018-Feb-19 09:00N 38°32' W 009°53'510.0
2018-Feb-19 08:30N 38°34' W 009°59'5 9.7
2018-Feb-19 08:00N 38°37' W 010°04'510.8
2018-Feb-19 07:30N 38°42' W 010°05'510.3
2018-Feb-19 07:00N 38°48' W 010°05'510.6
2018-Feb-19 06:30N 38°53' W 010°05'510.8
2018-Feb-19 06:00N 38°58' W 010°04'510.4
2018-Feb-19 05:30N 39°03' W 010°03'510.1
2018-Feb-19 05:00N 39°08' W 010°01'5 9.8
2018-Feb-19 04:30N 39°13' W 009°59'5 9.9
2018-Feb-19 04:00N 39°18' W 009°58'510.1
2018-Feb-19 03:30N 39°23' W 009°57'510.9
2018-Feb-19 03:00N 39°28' W 009°55'510.8
2018-Feb-19 02:30N 39°33' W 009°53'610.5
2018-Feb-19 01:57N 39°39' W 009°51'610.3
2018-Feb-19 01:19N 39°45' W 009°49'410.5
2018-Feb-19 00:59N 39°48' W 009°47'510.7
2018-Feb-19 00:30N 39°53' W 009°46'510.6
2018-Feb-19 00:00N 39°58' W 009°44'510.6
2018-Feb-18 23:30N 40°04' W 009°42'510.6
2018-Feb-18 23:00N 40°09' W 009°41'810.8
2018-Feb-18 22:14N 40°17' W 009°38'410.5
2018-Feb-18 21:48N 40°21' W 009°37'  
Track history (hours):
 
Tides and Currents Weather Stations Pressure Air Temp Water Temp Dewpoint Dewpoint Depression Visibility Wind Speed Wind Dir Waves Ship Positions

Atlantic Island

Last reported at 2018-Feb-21 07:10 UTC. Time now 2018-Feb-25 19:44 UTC.
Position N 37°29' W 009°23'.

Length 95 m; draft 5.2 m.

Type: Cargo ship. MMSI: 210754000.

Date/timePositionNaut miles runAvg speedWind from/ knotsBaromVisibWave heightAir tempDewpointWater temp
2018-Feb-21 07:10N 37°29' W 009°23'210.0
2018-Feb-21 07:00N 37°31' W 009°22'5 9.4
2018-Feb-21 06:30N 37°35' W 009°21'5 9.4
2018-Feb-21 06:00N 37°40' W 009°19'5 9.8
2018-Feb-21 05:30N 37°45' W 009°17'5 9.9
2018-Feb-21 05:00N 37°49' W 009°15'510.4
2018-Feb-21 04:30N 37°54' W 009°13'510.2
2018-Feb-21 04:00N 37°59' W 009°11'5 9.9
2018-Feb-21 03:30N 38°04' W 009°09'5 9.7
2018-Feb-21 03:00N 38°08' W 009°07'5 9.7
2018-Feb-21 02:30N 38°13' W 009°05'510.0
2018-Feb-21 02:00N 38°18' W 009°03'510.1
2018-Feb-21 01:30N 38°22' W 009°01'5 9.9
2018-Feb-21 01:00N 38°27' W 008°58'5 9.3
2018-Feb-21 00:30N 38°30' W 008°54'2 3.2
2018-Feb-20 23:58N 38°31' W 008°52'0 0.0
2018-Feb-20 23:29N 38°31' W 008°52'0 0.0
2018-Feb-20 22:40N 38°31' W 008°52'0 0.0
2018-Feb-20 22:28N 38°31' W 008°52'0 0.0
2018-Feb-20 20:28N 38°31' W 008°52'0 0.0
2018-Feb-20 19:49N 38°31' W 008°52'0 0.0
2018-Feb-20 19:28N 38°31' W 008°52'0 0.0
2018-Feb-20 18:58N 38°31' W 008°52'0 0.0
2018-Feb-20 18:28N 38°31' W 008°52'0 0.0
2018-Feb-20 17:58N 38°31' W 008°52'0 0.0
2018-Feb-20 17:22N 38°31' W 008°52'0 0.0
2018-Feb-20 16:46N 38°31' W 008°52'0 0.0
2018-Feb-20 16:31N 38°31' W 008°52'0 0.0
2018-Feb-20 14:33N 38°31' W 008°52'0 0.0
2018-Feb-20 14:21N 38°31' W 008°52'0 0.0
2018-Feb-20 13:45N 38°31' W 008°52'0 0.0
2018-Feb-20 13:27N 38°31' W 008°52'0 0.0
2018-Feb-20 12:57N 38°31' W 008°52'0 0.0
2018-Feb-20 12:27N 38°31' W 008°52'0 0.0
2018-Feb-20 11:09N 38°31' W 008°52'0 0.0
2018-Feb-20 10:57N 38°31' W 008°52'0 0.0
2018-Feb-20 10:27N 38°31' W 008°52'0 0.0
2018-Feb-20 10:00N 38°31' W 008°52'0 0.0
2018-Feb-20 09:27N 38°31' W 008°52'0 0.0
2018-Feb-20 08:54N 38°31' W 008°52'0 0.0
2018-Feb-20 08:27N 38°31' W 008°52'0 0.0
2018-Feb-20 08:00N 38°31' W 008°52'0 0.0
2018-Feb-20 07:27N 38°31' W 008°52'0 0.0
2018-Feb-20 07:00N 38°31' W 008°52'0 0.0
2018-Feb-20 06:30N 38°31' W 008°52'0 0.0
2018-Feb-20 05:54N 38°31' W 008°52'0 0.0
2018-Feb-20 05:30N 38°31' W 008°52'0 0.0
2018-Feb-20 04:54N 38°31' W 008°52'0 0.0
2018-Feb-20 04:30N 38°31' W 008°52'0 0.0
2018-Feb-20 04:00N 38°31' W 008°52'0 0.0
2018-Feb-20 03:27N 38°31' W 008°52'0 0.0
2018-Feb-20 03:00N 38°31' W 008°52'0 0.0
2018-Feb-20 02:30N 38°31' W 008°52'0 0.0
2018-Feb-20 00:54N 38°31' W 008°52'0 0.0
2018-Feb-20 00:30N 38°31' W 008°52'0 0.0
2018-Feb-20 00:00N 38°31' W 008°52'0 0.0
2018-Feb-19 23:30N 38°31' W 008°52'0 0.0
2018-Feb-19 23:00N 38°31' W 008°52'0 0.0
2018-Feb-19 22:30N 38°31' W 008°52'0 0.0
2018-Feb-19 19:45N 38°31' W 008°52'0 0.0
2018-Feb-19 18:33N 38°31' W 008°52'0 0.0
2018-Feb-19 18:21N 38°31' W 008°52'0 0.0
2018-Feb-19 17:57N 38°31' W 008°52'0 0.0
2018-Feb-19 16:54N 38°31' W 008°52'0 0.0
2018-Feb-19 16:22N 38°31' W 008°52'2 5.8
2018-Feb-19 16:00N 38°30' W 008°55'511.1
2018-Feb-19 15:30N 38°26' W 008°59'510.0
2018-Feb-19 15:00N 38°22' W 009°03'1 1.0
2018-Feb-19 14:30N 38°23' W 009°04'0 0.9
2018-Feb-19 14:00N 38°23' W 009°04'0 0.6
2018-Feb-19 13:30N 38°23' W 009°04'1 1.6
2018-Feb-19 13:00N 38°23' W 009°05'510.4
2018-Feb-19 12:30N 38°21' W 009°11'5 9.9
2018-Feb-19 12:00N 38°22' W 009°17'5 9.8
2018-Feb-19 11:30N 38°24' W 009°23'510.0
2018-Feb-19 11:00N 38°25' W 009°29'510.0
2018-Feb-19 10:30N 38°27' W 009°35'510.2
2018-Feb-19 10:00N 38°29' W 009°41'510.3
2018-Feb-19 09:30N 38°30' W 009°48'5 9.7
2018-Feb-19 09:00N 38°32' W 009°53'510.0
2018-Feb-19 08:30N 38°34' W 009°59'5 9.7
2018-Feb-19 08:00N 38°37' W 010°04'510.8
2018-Feb-19 07:30N 38°42' W 010°05'510.3
2018-Feb-19 07:00N 38°48' W 010°05'510.6
2018-Feb-19 06:30N 38°53' W 010°05'510.8
2018-Feb-19 06:00N 38°58' W 010°04'510.4
2018-Feb-19 05:30N 39°03' W 010°03'510.1
2018-Feb-19 05:00N 39°08' W 010°01'5 9.8
2018-Feb-19 04:30N 39°13' W 009°59'5 9.9
2018-Feb-19 04:00N 39°18' W 009°58'510.1
2018-Feb-19 03:30N 39°23' W 009°57'510.9
2018-Feb-19 03:00N 39°28' W 009°55'510.8
2018-Feb-19 02:30N 39°33' W 009°53'610.5
2018-Feb-19 01:57N 39°39' W 009°51'610.3
2018-Feb-19 01:19N 39°45' W 009°49'410.5
2018-Feb-19 00:59N 39°48' W 009°47'510.7
2018-Feb-19 00:30N 39°53' W 009°46'510.6
2018-Feb-19 00:00N 39°58' W 009°44'510.6
2018-Feb-18 23:30N 40°04' W 009°42'510.6
2018-Feb-18 23:00N 40°09' W 009°41'810.8
2018-Feb-18 22:14N 40°17' W 009°38'410.5
2018-Feb-18 21:48N 40°21' W 009°37'  

Dump ship's entire track history